sensor_id;sensor_type;location;lat;lon;timestamp;P1;durP1;ratioP1;P2;durP2;ratioP2
24559;SDS011;12727;49.934;8.656;2024-03-23T00:53:43;23.83;;;15.85;;
24559;SDS011;12727;49.934;8.656;2024-03-23T00:56:09;20.63;;;14.85;;
24559;SDS011;12727;49.934;8.656;2024-03-23T00:58:35;19.23;;;14.98;;
24559;SDS011;12727;49.934;8.656;2024-03-23T01:01:00;21.92;;;15.30;;
24559;SDS011;12727;49.934;8.656;2024-03-23T01:03:29;20.85;;;14.07;;
24559;SDS011;12727;49.934;8.656;2024-03-23T01:05:58;17.73;;;13.25;;
24559;SDS011;12727;49.934;8.656;2024-03-23T01:08:31;19.73;;;13.82;;
24559;SDS011;12727;49.934;8.656;2024-03-23T01:10:57;18.90;;;12.98;;
24559;SDS011;12727;49.934;8.656;2024-03-23T01:13:26;17.10;;;12.82;;
24559;SDS011;12727;49.934;8.656;2024-03-23T01:15:53;18.23;;;13.15;;
24559;SDS011;12727;49.934;8.656;2024-03-23T01:18:23;17.70;;;12.48;;
24559;SDS011;12727;49.934;8.656;2024-03-23T01:20:51;19.33;;;12.50;;
24559;SDS011;12727;49.934;8.656;2024-03-23T01:23:16;21.83;;;13.13;;
24559;SDS011;12727;49.934;8.656;2024-03-23T01:25:42;15.38;;;11.75;;
24559;SDS011;12727;49.934;8.656;2024-03-23T01:28:07;22.95;;;13.30;;
24559;SDS011;12727;49.934;8.656;2024-03-23T01:30:33;18.25;;;11.98;;
24559;SDS011;12727;49.934;8.656;2024-03-23T01:33:01;15.82;;;12.15;;
24559;SDS011;12727;49.934;8.656;2024-03-23T01:35:27;16.27;;;12.15;;
24559;SDS011;12727;49.934;8.656;2024-03-23T01:37:53;16.90;;;12.18;;
24559;SDS011;12727;49.934;8.656;2024-03-23T01:40:19;19.42;;;14.80;;
24559;SDS011;12727;49.934;8.656;2024-03-23T01:42:57;18.67;;;13.55;;
24559;SDS011;12727;49.934;8.656;2024-03-23T01:45:23;18.70;;;14.18;;
24559;SDS011;12727;49.934;8.656;2024-03-23T01:47:50;18.83;;;15.02;;
24559;SDS011;12727;49.934;8.656;2024-03-23T01:50:19;23.23;;;15.73;;
24559;SDS011;12727;49.934;8.656;2024-03-23T01:52:46;21.00;;;16.75;;
24559;SDS011;12727;49.934;8.656;2024-03-23T01:55:12;21.92;;;16.20;;
24559;SDS011;12727;49.934;8.656;2024-03-23T01:57:38;25.52;;;17.85;;
24559;SDS011;12727;49.934;8.656;2024-03-23T02:00:04;22.65;;;15.32;;
24559;SDS011;12727;49.934;8.656;2024-03-23T02:02:31;18.30;;;14.60;;
24559;SDS011;12727;49.934;8.656;2024-03-23T02:04:56;21.08;;;14.45;;
24559;SDS011;12727;49.934;8.656;2024-03-23T02:07:22;19.63;;;14.32;;
24559;SDS011;12727;49.934;8.656;2024-03-23T02:09:50;17.77;;;14.07;;
24559;SDS011;12727;49.934;8.656;2024-03-23T02:12:16;18.85;;;14.73;;
24559;SDS011;12727;49.934;8.656;2024-03-23T02:14:42;17.33;;;14.13;;
24559;SDS011;12727;49.934;8.656;2024-03-23T02:17:08;21.48;;;14.60;;
24559;SDS011;12727;49.934;8.656;2024-03-23T02:19:34;24.45;;;16.02;;
24559;SDS011;12727;49.934;8.656;2024-03-23T02:21:59;22.10;;;15.68;;
24559;SDS011;12727;49.934;8.656;2024-03-23T02:24:25;26.90;;;16.08;;
24559;SDS011;12727;49.934;8.656;2024-03-23T02:26:51;23.13;;;16.58;;
24559;SDS011;12727;49.934;8.656;2024-03-23T02:29:16;21.48;;;15.60;;
24559;SDS011;12727;49.934;8.656;2024-03-23T02:31:42;22.80;;;16.05;;
24559;SDS011;12727;49.934;8.656;2024-03-23T02:34:07;20.30;;;16.23;;
24559;SDS011;12727;49.934;8.656;2024-03-23T02:36:33;21.85;;;16.10;;
24559;SDS011;12727;49.934;8.656;2024-03-23T02:38:58;21.27;;;15.63;;
24559;SDS011;12727;49.934;8.656;2024-03-23T02:41:24;23.98;;;16.30;;
24559;SDS011;12727;49.934;8.656;2024-03-23T02:43:50;23.08;;;16.83;;
24559;SDS011;12727;49.934;8.656;2024-03-23T02:46:15;19.02;;;14.45;;
24559;SDS011;12727;49.934;8.656;2024-03-23T02:48:41;21.10;;;16.42;;
24559;SDS011;12727;49.934;8.656;2024-03-23T02:51:06;22.98;;;16.77;;
24559;SDS011;12727;49.934;8.656;2024-03-23T02:53:32;20.23;;;16.55;;
24559;SDS011;12727;49.934;8.656;2024-03-23T02:55:58;25.48;;;15.50;;
24559;SDS011;12727;49.934;8.656;2024-03-23T02:58:24;18.85;;;14.45;;
24559;SDS011;12727;49.934;8.656;2024-03-23T03:00:49;23.02;;;15.90;;
24559;SDS011;12727;49.934;8.656;2024-03-23T03:03:15;21.98;;;15.75;;
24559;SDS011;12727;49.934;8.656;2024-03-23T03:05:40;21.23;;;15.88;;
24559;SDS011;12727;49.934;8.656;2024-03-23T03:08:06;21.67;;;16.85;;
24559;SDS011;12727;49.934;8.656;2024-03-23T03:10:32;22.70;;;17.20;;
24559;SDS011;12727;49.934;8.656;2024-03-23T03:13:00;19.45;;;15.02;;
24559;SDS011;12727;49.934;8.656;2024-03-23T03:15:25;21.30;;;15.80;;
24559;SDS011;12727;49.934;8.656;2024-03-23T03:17:51;23.85;;;16.38;;
24559;SDS011;12727;49.934;8.656;2024-03-23T03:20:16;19.55;;;15.25;;
24559;SDS011;12727;49.934;8.656;2024-03-23T03:22:43;22.92;;;15.50;;
24559;SDS011;12727;49.934;8.656;2024-03-23T03:25:09;21.05;;;15.48;;
24559;SDS011;12727;49.934;8.656;2024-03-23T03:27:34;21.63;;;15.18;;
24559;SDS011;12727;49.934;8.656;2024-03-23T03:30:00;23.15;;;15.90;;
24559;SDS011;12727;49.934;8.656;2024-03-23T03:32:28;21.75;;;16.38;;
24559;SDS011;12727;49.934;8.656;2024-03-23T03:34:54;21.42;;;15.57;;
24559;SDS011;12727;49.934;8.656;2024-03-23T03:37:19;20.67;;;15.55;;
24559;SDS011;12727;49.934;8.656;2024-03-23T03:39:45;23.58;;;15.95;;
24559;SDS011;12727;49.934;8.656;2024-03-23T03:42:10;22.30;;;16.13;;
24559;SDS011;12727;49.934;8.656;2024-03-23T03:44:36;21.38;;;16.67;;
24559;SDS011;12727;49.934;8.656;2024-03-23T03:47:01;21.13;;;16.27;;
24559;SDS011;12727;49.934;8.656;2024-03-23T03:49:27;22.52;;;16.58;;
24559;SDS011;12727;49.934;8.656;2024-03-23T03:51:53;20.55;;;16.10;;
24559;SDS011;12727;49.934;8.656;2024-03-23T03:54:18;20.75;;;15.80;;
24559;SDS011;12727;49.934;8.656;2024-03-23T03:56:44;19.55;;;15.63;;
24559;SDS011;12727;49.934;8.656;2024-03-23T03:59:09;22.83;;;15.82;;
24559;SDS011;12727;49.934;8.656;2024-03-23T04:01:35;23.65;;;16.98;;
24559;SDS011;12727;49.934;8.656;2024-03-23T04:04:00;22.90;;;16.55;;
24559;SDS011;12727;49.934;8.656;2024-03-23T04:06:26;21.45;;;16.08;;
24559;SDS011;12727;49.934;8.656;2024-03-23T04:08:52;23.98;;;16.83;;
24559;SDS011;12727;49.934;8.656;2024-03-23T04:11:17;24.42;;;17.33;;
24559;SDS011;12727;49.934;8.656;2024-03-23T04:13:43;23.10;;;15.70;;
24559;SDS011;12727;49.934;8.656;2024-03-23T04:16:08;25.67;;;17.65;;
24559;SDS011;12727;49.934;8.656;2024-03-23T04:18:34;24.05;;;16.33;;
24559;SDS011;12727;49.934;8.656;2024-03-23T04:21:00;26.55;;;18.08;;
24559;SDS011;12727;49.934;8.656;2024-03-23T04:23:26;26.05;;;18.25;;
24559;SDS011;12727;49.934;8.656;2024-03-23T04:25:51;28.00;;;18.85;;
24559;SDS011;12727;49.934;8.656;2024-03-23T04:28:18;28.70;;;18.88;;
24559;SDS011;12727;49.934;8.656;2024-03-23T04:30:44;32.78;;;19.77;;
24559;SDS011;12727;49.934;8.656;2024-03-23T04:33:09;33.35;;;20.55;;
24559;SDS011;12727;49.934;8.656;2024-03-23T04:35:35;31.23;;;20.52;;
24559;SDS011;12727;49.934;8.656;2024-03-23T04:38:01;31.35;;;19.88;;
24559;SDS011;12727;49.934;8.656;2024-03-23T04:40:27;28.33;;;17.10;;
24559;SDS011;12727;49.934;8.656;2024-03-23T04:42:52;25.05;;;14.85;;
24559;SDS011;12727;49.934;8.656;2024-03-23T04:45:18;14.98;;;8.90;;
24559;SDS011;12727;49.934;8.656;2024-03-23T04:47:43;10.40;;;6.53;;
24559;SDS011;12727;49.934;8.656;2024-03-23T04:50:09;8.52;;;4.47;;
24559;SDS011;12727;49.934;8.656;2024-03-23T04:52:37;5.28;;;3.30;;
24559;SDS011;12727;49.934;8.656;2024-03-23T04:55:05;4.28;;;2.58;;
24559;SDS011;12727;49.934;8.656;2024-03-23T04:57:30;3.35;;;1.77;;
24559;SDS011;12727;49.934;8.656;2024-03-23T04:59:56;3.70;;;2.05;;
24559;SDS011;12727;49.934;8.656;2024-03-23T05:02:23;4.18;;;1.90;;
24559;SDS011;12727;49.934;8.656;2024-03-23T05:04:50;3.72;;;2.20;;
24559;SDS011;12727;49.934;8.656;2024-03-23T05:07:16;4.72;;;2.08;;
24559;SDS011;12727;49.934;8.656;2024-03-23T05:09:41;3.45;;;1.90;;
24559;SDS011;12727;49.934;8.656;2024-03-23T05:12:07;4.30;;;1.98;;
24559;SDS011;12727;49.934;8.656;2024-03-23T05:14:32;5.07;;;2.88;;
24559;SDS011;12727;49.934;8.656;2024-03-23T05:16:58;6.45;;;2.83;;
24559;SDS011;12727;49.934;8.656;2024-03-23T05:19:23;6.80;;;3.17;;
24559;SDS011;12727;49.934;8.656;2024-03-23T05:21:49;4.00;;;2.67;;
24559;SDS011;12727;49.934;8.656;2024-03-23T05:24:14;2.75;;;1.98;;
24559;SDS011;12727;49.934;8.656;2024-03-23T05:26:40;2.38;;;1.50;;
24559;SDS011;12727;49.934;8.656;2024-03-23T05:29:05;3.88;;;1.40;;
24559;SDS011;12727;49.934;8.656;2024-03-23T05:31:35;2.05;;;1.38;;
24559;SDS011;12727;49.934;8.656;2024-03-23T05:34:01;2.95;;;1.40;;
24559;SDS011;12727;49.934;8.656;2024-03-23T05:36:26;1.58;;;1.10;;
24559;SDS011;12727;49.934;8.656;2024-03-23T05:38:52;2.20;;;1.20;;
24559;SDS011;12727;49.934;8.656;2024-03-23T05:41:18;2.08;;;1.42;;
24559;SDS011;12727;49.934;8.656;2024-03-23T05:43:43;3.13;;;1.80;;
24559;SDS011;12727;49.934;8.656;2024-03-23T05:46:09;2.15;;;1.30;;
24559;SDS011;12727;49.934;8.656;2024-03-23T05:48:35;1.80;;;1.30;;
24559;SDS011;12727;49.934;8.656;2024-03-23T05:51:01;2.30;;;1.67;;
24559;SDS011;12727;49.934;8.656;2024-03-23T05:53:26;2.30;;;1.80;;
24559;SDS011;12727;49.934;8.656;2024-03-23T05:56:00;4.85;;;1.70;;
24559;SDS011;12727;49.934;8.656;2024-03-23T05:58:30;2.00;;;1.80;;
24559;SDS011;12727;49.934;8.656;2024-03-23T06:00:59;2.10;;;1.80;;
24559;SDS011;12727;49.934;8.656;2024-03-23T06:03:26;2.70;;;2.03;;
24559;SDS011;12727;49.934;8.656;2024-03-23T06:05:52;3.05;;;2.20;;
24559;SDS011;12727;49.934;8.656;2024-03-23T06:08:21;3.05;;;2.15;;
24559;SDS011;12727;49.934;8.656;2024-03-23T06:10:47;1.85;;;1.63;;
24559;SDS011;12727;49.934;8.656;2024-03-23T06:13:13;2.17;;;1.85;;
24559;SDS011;12727;49.934;8.656;2024-03-23T06:15:39;4.68;;;2.38;;
24559;SDS011;12727;49.934;8.656;2024-03-23T06:18:04;4.80;;;1.85;;
24559;SDS011;12727;49.934;8.656;2024-03-23T06:20:30;1.80;;;1.30;;
24559;SDS011;12727;49.934;8.656;2024-03-23T06:22:56;1.98;;;1.42;;
24559;SDS011;12727;49.934;8.656;2024-03-23T06:25:22;1.13;;;1.00;;
24559;SDS011;12727;49.934;8.656;2024-03-23T06:27:48;1.30;;;1.10;;
24559;SDS011;12727;49.934;8.656;2024-03-23T06:30:13;1.45;;;1.02;;
24559;SDS011;12727;49.934;8.656;2024-03-23T06:32:39;1.13;;;0.73;;
24559;SDS011;12727;49.934;8.656;2024-03-23T06:35:04;1.05;;;0.63;;
24559;SDS011;12727;49.934;8.656;2024-03-23T06:37:33;1.25;;;0.70;;
24559;SDS011;12727;49.934;8.656;2024-03-23T06:39:59;1.35;;;0.68;;
24559;SDS011;12727;49.934;8.656;2024-03-23T06:42:25;0.70;;;0.60;;
24559;SDS011;12727;49.934;8.656;2024-03-23T06:44:50;0.50;;;0.50;;
24559;SDS011;12727;49.934;8.656;2024-03-23T06:47:16;1.73;;;0.50;;
24559;SDS011;12727;49.934;8.656;2024-03-23T06:49:42;0.43;;;0.30;;
24559;SDS011;12727;49.934;8.656;2024-03-23T06:52:07;0.60;;;0.40;;
24559;SDS011;12727;49.934;8.656;2024-03-23T06:54:33;0.93;;;0.40;;
24559;SDS011;12727;49.934;8.656;2024-03-23T06:56:59;0.90;;;0.52;;
24559;SDS011;12727;49.934;8.656;2024-03-23T06:59:24;0.60;;;0.35;;
24559;SDS011;12727;49.934;8.656;2024-03-23T07:01:50;0.60;;;0.40;;
24559;SDS011;12727;49.934;8.656;2024-03-23T07:04:16;0.88;;;0.60;;
24559;SDS011;12727;49.934;8.656;2024-03-23T07:06:44;0.60;;;0.30;;
24559;SDS011;12727;49.934;8.656;2024-03-23T07:09:10;0.70;;;0.30;;
24559;SDS011;12727;49.934;8.656;2024-03-23T07:11:36;0.88;;;0.50;;
24559;SDS011;12727;49.934;8.656;2024-03-23T07:14:02;2.10;;;0.60;;
24559;SDS011;12727;49.934;8.656;2024-03-23T07:16:27;2.45;;;0.80;;
24559;SDS011;12727;49.934;8.656;2024-03-23T07:18:53;2.80;;;0.70;;
24559;SDS011;12727;49.934;8.656;2024-03-23T07:21:19;3.17;;;0.75;;
24559;SDS011;12727;49.934;8.656;2024-03-23T07:23:44;4.63;;;0.80;;
24559;SDS011;12727;49.934;8.656;2024-03-23T07:26:10;5.25;;;0.90;;
24559;SDS011;12727;49.934;8.656;2024-03-23T07:28:36;3.15;;;0.90;;
24559;SDS011;12727;49.934;8.656;2024-03-23T07:31:06;6.85;;;1.52;;
24559;SDS011;12727;49.934;8.656;2024-03-23T07:33:45;4.47;;;1.00;;
24559;SDS011;12727;49.934;8.656;2024-03-23T07:36:13;4.50;;;1.10;;
24559;SDS011;12727;49.934;8.656;2024-03-23T07:38:42;4.55;;;1.58;;
24559;SDS011;12727;49.934;8.656;2024-03-23T07:41:10;6.85;;;1.50;;
24559;SDS011;12727;49.934;8.656;2024-03-23T07:43:39;4.05;;;1.33;;
24559;SDS011;12727;49.934;8.656;2024-03-23T07:46:05;5.70;;;1.50;;
24559;SDS011;12727;49.934;8.656;2024-03-23T07:48:31;4.65;;;1.42;;
24559;SDS011;12727;49.934;8.656;2024-03-23T07:51:04;5.03;;;1.25;;
24559;SDS011;12727;49.934;8.656;2024-03-23T07:53:36;4.88;;;1.60;;
24559;SDS011;12727;49.934;8.656;2024-03-23T07:58:28;5.57;;;1.48;;
24559;SDS011;12727;49.934;8.656;2024-03-23T08:00:54;5.07;;;1.50;;
24559;SDS011;12727;49.934;8.656;2024-03-23T08:03:20;5.20;;;1.45;;
24559;SDS011;12727;49.934;8.656;2024-03-23T08:05:46;4.93;;;1.60;;
24559;SDS011;12727;49.934;8.656;2024-03-23T08:08:12;3.95;;;1.67;;
24559;SDS011;12727;49.934;8.656;2024-03-23T08:10:50;4.60;;;1.40;;
24559;SDS011;12727;49.934;8.656;2024-03-23T08:13:16;4.13;;;1.52;;
24559;SDS011;12727;49.934;8.656;2024-03-23T08:15:42;6.03;;;1.75;;
24559;SDS011;12727;49.934;8.656;2024-03-23T08:18:09;6.38;;;2.03;;
24559;SDS011;12727;49.934;8.656;2024-03-23T08:20:40;5.55;;;2.80;;
24559;SDS011;12727;49.934;8.656;2024-03-23T08:23:06;7.32;;;2.85;;
24559;SDS011;12727;49.934;8.656;2024-03-23T08:25:32;7.28;;;2.60;;
24559;SDS011;12727;49.934;8.656;2024-03-23T08:27:58;6.38;;;2.30;;
24559;SDS011;12727;49.934;8.656;2024-03-23T08:30:24;6.35;;;2.50;;
24559;SDS011;12727;49.934;8.656;2024-03-23T08:32:49;5.20;;;2.60;;
24559;SDS011;12727;49.934;8.656;2024-03-23T08:35:15;7.78;;;2.65;;
24559;SDS011;12727;49.934;8.656;2024-03-23T08:37:41;5.57;;;2.47;;
24559;SDS011;12727;49.934;8.656;2024-03-23T08:40:06;6.25;;;3.08;;
24559;SDS011;12727;49.934;8.656;2024-03-23T08:42:33;6.45;;;2.90;;
24559;SDS011;12727;49.934;8.656;2024-03-23T08:44:59;6.82;;;3.03;;
24559;SDS011;12727;49.934;8.656;2024-03-23T08:47:25;6.47;;;2.90;;
24559;SDS011;12727;49.934;8.656;2024-03-23T08:49:51;8.15;;;3.00;;
24559;SDS011;12727;49.934;8.656;2024-03-23T08:52:17;8.18;;;2.88;;
24559;SDS011;12727;49.934;8.656;2024-03-23T08:54:43;6.38;;;2.78;;
24559;SDS011;12727;49.934;8.656;2024-03-23T08:57:08;5.78;;;3.10;;
24559;SDS011;12727;49.934;8.656;2024-03-23T08:59:34;6.88;;;3.05;;
24559;SDS011;12727;49.934;8.656;2024-03-23T09:01:59;9.05;;;3.38;;
24559;SDS011;12727;49.934;8.656;2024-03-23T09:04:25;9.48;;;2.72;;
24559;SDS011;12727;49.934;8.656;2024-03-23T09:06:51;7.03;;;2.90;;
24559;SDS011;12727;49.934;8.656;2024-03-23T09:09:17;4.70;;;2.80;;
24559;SDS011;12727;49.934;8.656;2024-03-23T09:11:44;7.32;;;3.03;;
24559;SDS011;12727;49.934;8.656;2024-03-23T09:14:10;7.30;;;2.70;;
24559;SDS011;12727;49.934;8.656;2024-03-23T09:16:36;6.88;;;2.53;;
24559;SDS011;12727;49.934;8.656;2024-03-23T09:19:02;11.60;;;2.85;;
24559;SDS011;12727;49.934;8.656;2024-03-23T09:21:28;6.57;;;2.92;;
24559;SDS011;12727;49.934;8.656;2024-03-23T09:23:53;7.90;;;2.97;;
24559;SDS011;12727;49.934;8.656;2024-03-23T09:26:19;8.65;;;3.13;;
24559;SDS011;12727;49.934;8.656;2024-03-23T09:28:45;10.15;;;3.88;;
24559;SDS011;12727;49.934;8.656;2024-03-23T09:31:13;8.95;;;3.42;;
24559;SDS011;12727;49.934;8.656;2024-03-23T09:33:40;7.28;;;3.17;;
24559;SDS011;12727;49.934;8.656;2024-03-23T09:36:06;8.50;;;3.00;;
24559;SDS011;12727;49.934;8.656;2024-03-23T09:38:32;7.68;;;3.25;;
24559;SDS011;12727;49.934;8.656;2024-03-23T09:40:59;11.25;;;3.45;;
24559;SDS011;12727;49.934;8.656;2024-03-23T09:43:25;7.28;;;3.45;;
24559;SDS011;12727;49.934;8.656;2024-03-23T09:45:51;9.65;;;3.25;;
24559;SDS011;12727;49.934;8.656;2024-03-23T09:48:17;7.50;;;3.53;;
24559;SDS011;12727;49.934;8.656;2024-03-23T09:50:43;6.63;;;2.90;;
24559;SDS011;12727;49.934;8.656;2024-03-23T09:53:10;6.80;;;2.83;;
24559;SDS011;12727;49.934;8.656;2024-03-23T09:55:36;8.43;;;3.17;;
24559;SDS011;12727;49.934;8.656;2024-03-23T09:58:02;8.77;;;2.65;;
24559;SDS011;12727;49.934;8.656;2024-03-23T10:00:30;6.47;;;2.53;;
24559;SDS011;12727;49.934;8.656;2024-03-23T10:02:56;7.70;;;2.58;;
24559;SDS011;12727;49.934;8.656;2024-03-23T10:05:28;6.40;;;2.53;;
24559;SDS011;12727;49.934;8.656;2024-03-23T10:07:56;14.27;;;2.88;;
24559;SDS011;12727;49.934;8.656;2024-03-23T10:10:22;5.05;;;1.95;;
24559;SDS011;12727;49.934;8.656;2024-03-23T10:12:50;7.22;;;2.67;;
24559;SDS011;12727;49.934;8.656;2024-03-23T10:15:19;8.63;;;2.25;;
24559;SDS011;12727;49.934;8.656;2024-03-23T10:17:49;6.20;;;2.05;;
24559;SDS011;12727;49.934;8.656;2024-03-23T10:20:21;8.40;;;2.33;;
24559;SDS011;12727;49.934;8.656;2024-03-23T10:22:48;5.83;;;1.80;;
24559;SDS011;12727;49.934;8.656;2024-03-23T10:25:17;10.98;;;2.47;;
24559;SDS011;12727;49.934;8.656;2024-03-23T10:27:56;9.05;;;2.38;;
24559;SDS011;12727;49.934;8.656;2024-03-23T10:30:24;7.85;;;2.17;;
24559;SDS011;12727;49.934;8.656;2024-03-23T10:32:55;9.52;;;3.03;;
24559;SDS011;12727;49.934;8.656;2024-03-23T10:35:32;9.07;;;2.78;;
24559;SDS011;12727;49.934;8.656;2024-03-23T10:37:57;6.60;;;2.92;;
24559;SDS011;12727;49.934;8.656;2024-03-23T10:40:23;8.68;;;2.97;;
24559;SDS011;12727;49.934;8.656;2024-03-23T10:42:49;9.00;;;2.50;;
24559;SDS011;12727;49.934;8.656;2024-03-23T10:45:17;10.70;;;2.60;;
24559;SDS011;12727;49.934;8.656;2024-03-23T10:47:43;9.82;;;3.08;;
24559;SDS011;12727;49.934;8.656;2024-03-23T10:50:08;8.68;;;2.05;;
24559;SDS011;12727;49.934;8.656;2024-03-23T10:52:34;5.22;;;1.70;;
24559;SDS011;12727;49.934;8.656;2024-03-23T10:55:00;5.70;;;0.93;;
24559;SDS011;12727;49.934;8.656;2024-03-23T10:57:32;4.30;;;0.93;;
24559;SDS011;12727;49.934;8.656;2024-03-23T11:00:09;3.92;;;0.80;;
24559;SDS011;12727;49.934;8.656;2024-03-23T11:02:35;3.15;;;0.63;;
24559;SDS011;12727;49.934;8.656;2024-03-23T11:05:01;3.25;;;0.85;;
24559;SDS011;12727;49.934;8.656;2024-03-23T11:09:59;4.32;;;0.90;;
24559;SDS011;12727;49.934;8.656;2024-03-23T11:12:26;4.18;;;0.90;;
24559;SDS011;12727;49.934;8.656;2024-03-23T11:17:36;5.72;;;1.35;;
24559;SDS011;12727;49.934;8.656;2024-03-23T11:20:03;4.97;;;1.33;;
24559;SDS011;12727;49.934;8.656;2024-03-23T11:22:39;4.82;;;1.38;;
24559;SDS011;12727;49.934;8.656;2024-03-23T11:28:23;4.20;;;1.13;;
24559;SDS011;12727;49.934;8.656;2024-03-23T11:30:42;6.25;;;1.80;;
24559;SDS011;12727;49.934;8.656;2024-03-23T11:33:08;7.63;;;1.80;;
24559;SDS011;12727;49.934;8.656;2024-03-23T11:35:38;6.35;;;2.53;;
24559;SDS011;12727;49.934;8.656;2024-03-23T11:40:41;9.40;;;3.00;;
24559;SDS011;12727;49.934;8.656;2024-03-23T11:43:09;5.85;;;2.45;;
24559;SDS011;12727;49.934;8.656;2024-03-23T11:45:40;5.03;;;1.77;;
24559;SDS011;12727;49.934;8.656;2024-03-23T11:50:45;3.72;;;1.10;;
24559;SDS011;12727;49.934;8.656;2024-03-23T11:53:31;2.80;;;1.45;;
24559;SDS011;12727;49.934;8.656;2024-03-23T11:55:58;3.05;;;1.30;;
24559;SDS011;12727;49.934;8.656;2024-03-23T11:58:26;2.22;;;1.05;;
24559;SDS011;12727;49.934;8.656;2024-03-23T12:00:59;7.10;;;1.50;;
24559;SDS011;12727;49.934;8.656;2024-03-23T12:03:30;3.25;;;0.70;;
24559;SDS011;12727;49.934;8.656;2024-03-23T12:06:01;3.38;;;1.00;;
24559;SDS011;12727;49.934;8.656;2024-03-23T12:08:31;2.38;;;0.88;;
24559;SDS011;12727;49.934;8.656;2024-03-23T12:11:13;2.40;;;1.10;;
24559;SDS011;12727;49.934;8.656;2024-03-23T12:13:40;2.50;;;1.03;;
24559;SDS011;12727;49.934;8.656;2024-03-23T12:16:14;6.97;;;1.27;;
24559;SDS011;12727;49.934;8.656;2024-03-23T12:18:46;5.10;;;1.17;;
24559;SDS011;12727;49.934;8.656;2024-03-23T12:21:13;3.92;;;1.40;;
24559;SDS011;12727;49.934;8.656;2024-03-23T12:23:39;5.38;;;1.50;;
24559;SDS011;12727;49.934;8.656;2024-03-23T12:26:05;5.50;;;1.40;;
24559;SDS011;12727;49.934;8.656;2024-03-23T12:28:31;5.50;;;1.77;;
24559;SDS011;12727;49.934;8.656;2024-03-23T12:30:57;4.22;;;1.30;;
24559;SDS011;12727;49.934;8.656;2024-03-23T12:33:23;10.18;;;2.72;;
24559;SDS011;12727;49.934;8.656;2024-03-23T12:35:49;7.47;;;3.28;;
24559;SDS011;12727;49.934;8.656;2024-03-23T12:38:15;9.18;;;3.65;;
24559;SDS011;12727;49.934;8.656;2024-03-23T12:40:42;7.15;;;2.53;;
24559;SDS011;12727;49.934;8.656;2024-03-23T12:43:11;6.32;;;2.20;;
24559;SDS011;12727;49.934;8.656;2024-03-23T12:45:36;6.10;;;1.77;;
24559;SDS011;12727;49.934;8.656;2024-03-23T12:48:02;6.72;;;2.35;;
24559;SDS011;12727;49.934;8.656;2024-03-23T12:50:28;4.80;;;1.77;;
24559;SDS011;12727;49.934;8.656;2024-03-23T12:52:53;6.07;;;2.47;;
24559;SDS011;12727;49.934;8.656;2024-03-23T12:55:19;6.38;;;2.38;;
24559;SDS011;12727;49.934;8.656;2024-03-23T12:57:45;6.10;;;2.10;;
24559;SDS011;12727;49.934;8.656;2024-03-23T13:00:11;7.63;;;2.67;;
24559;SDS011;12727;49.934;8.656;2024-03-23T13:02:38;7.88;;;2.50;;
24559;SDS011;12727;49.934;8.656;2024-03-23T13:05:04;6.47;;;2.35;;
24559;SDS011;12727;49.934;8.656;2024-03-23T13:07:30;10.07;;;2.38;;
24559;SDS011;12727;49.934;8.656;2024-03-23T13:09:56;5.93;;;2.25;;
24559;SDS011;12727;49.934;8.656;2024-03-23T13:12:21;7.00;;;2.13;;
24559;SDS011;12727;49.934;8.656;2024-03-23T13:14:48;6.95;;;2.38;;
24559;SDS011;12727;49.934;8.656;2024-03-23T13:17:13;7.35;;;2.30;;
24559;SDS011;12727;49.934;8.656;2024-03-23T13:19:40;7.50;;;1.73;;
24559;SDS011;12727;49.934;8.656;2024-03-23T13:22:06;8.38;;;1.75;;
24559;SDS011;12727;49.934;8.656;2024-03-23T13:24:31;5.55;;;1.65;;
24559;SDS011;12727;49.934;8.656;2024-03-23T13:26:57;6.28;;;1.50;;
24559;SDS011;12727;49.934;8.656;2024-03-23T13:29:23;6.70;;;1.55;;
24559;SDS011;12727;49.934;8.656;2024-03-23T13:31:49;5.13;;;1.10;;
24559;SDS011;12727;49.934;8.656;2024-03-23T13:34:15;6.00;;;1.58;;
24559;SDS011;12727;49.934;8.656;2024-03-23T13:36:42;4.85;;;1.80;;
24559;SDS011;12727;49.934;8.656;2024-03-23T13:39:08;5.47;;;1.88;;
24559;SDS011;12727;49.934;8.656;2024-03-23T13:41:43;7.57;;;3.70;;
24559;SDS011;12727;49.934;8.656;2024-03-23T13:44:10;4.00;;;1.45;;
24559;SDS011;12727;49.934;8.656;2024-03-23T13:46:36;6.35;;;2.00;;
24559;SDS011;12727;49.934;8.656;2024-03-23T13:49:03;5.82;;;2.05;;
24559;SDS011;12727;49.934;8.656;2024-03-23T13:51:29;6.15;;;2.67;;
24559;SDS011;12727;49.934;8.656;2024-03-23T13:54:00;10.23;;;3.65;;
24559;SDS011;12727;49.934;8.656;2024-03-23T13:56:28;7.25;;;2.92;;
24559;SDS011;12727;49.934;8.656;2024-03-23T13:58:55;9.40;;;3.25;;
24559;SDS011;12727;49.934;8.656;2024-03-23T14:01:21;5.80;;;2.60;;
24559;SDS011;12727;49.934;8.656;2024-03-23T14:03:47;5.97;;;2.55;;
24559;SDS011;12727;49.934;8.656;2024-03-23T14:06:12;4.90;;;2.63;;
24559;SDS011;12727;49.934;8.656;2024-03-23T14:08:38;10.85;;;3.53;;
24559;SDS011;12727;49.934;8.656;2024-03-23T14:11:08;9.15;;;3.78;;
24559;SDS011;12727;49.934;8.656;2024-03-23T14:13:34;10.40;;;3.95;;
24559;SDS011;12727;49.934;8.656;2024-03-23T14:16:00;6.47;;;3.35;;
24559;SDS011;12727;49.934;8.656;2024-03-23T14:18:26;6.53;;;2.72;;
24559;SDS011;12727;49.934;8.656;2024-03-23T14:20:52;4.07;;;2.40;;
24559;SDS011;12727;49.934;8.656;2024-03-23T14:23:23;8.13;;;2.83;;
24559;SDS011;12727;49.934;8.656;2024-03-23T14:25:49;4.95;;;2.40;;
24559;SDS011;12727;49.934;8.656;2024-03-23T14:28:17;7.35;;;2.67;;
24559;SDS011;12727;49.934;8.656;2024-03-23T14:30:42;6.45;;;2.17;;
24559;SDS011;12727;49.934;8.656;2024-03-23T14:33:08;4.07;;;2.05;;
24559;SDS011;12727;49.934;8.656;2024-03-23T14:35:34;3.63;;;2.22;;
24559;SDS011;12727;49.934;8.656;2024-03-23T14:38:01;6.72;;;2.80;;
24559;SDS011;12727;49.934;8.656;2024-03-23T14:40:27;4.20;;;1.63;;
24559;SDS011;12727;49.934;8.656;2024-03-23T14:42:56;4.18;;;1.25;;
24559;SDS011;12727;49.934;8.656;2024-03-23T14:45:22;2.90;;;1.30;;
24559;SDS011;12727;49.934;8.656;2024-03-23T14:47:49;3.10;;;1.55;;
24559;SDS011;12727;49.934;8.656;2024-03-23T14:50:18;4.07;;;1.17;;
24559;SDS011;12727;49.934;8.656;2024-03-23T14:52:45;1.30;;;0.80;;
24559;SDS011;12727;49.934;8.656;2024-03-23T14:55:11;1.95;;;0.90;;
24559;SDS011;12727;49.934;8.656;2024-03-23T14:57:37;1.55;;;0.50;;
24559;SDS011;12727;49.934;8.656;2024-03-23T15:00:07;2.10;;;0.65;;
24559;SDS011;12727;49.934;8.656;2024-03-23T15:02:35;5.43;;;0.60;;
24559;SDS011;12727;49.934;8.656;2024-03-23T15:05:01;3.17;;;0.55;;
24559;SDS011;12727;49.934;8.656;2024-03-23T15:07:29;2.25;;;0.32;;
24559;SDS011;12727;49.934;8.656;2024-03-23T15:09:57;1.95;;;0.40;;
24559;SDS011;12727;49.934;8.656;2024-03-23T15:12:25;2.15;;;0.40;;
24559;SDS011;12727;49.934;8.656;2024-03-23T15:14:51;2.05;;;0.40;;
24559;SDS011;12727;49.934;8.656;2024-03-23T15:17:17;3.90;;;0.40;;
24559;SDS011;12727;49.934;8.656;2024-03-23T15:19:43;2.88;;;0.40;;
24559;SDS011;12727;49.934;8.656;2024-03-23T15:22:09;4.88;;;0.70;;
24559;SDS011;12727;49.934;8.656;2024-03-23T15:24:35;2.20;;;0.57;;
24559;SDS011;12727;49.934;8.656;2024-03-23T15:27:01;2.75;;;0.68;;
24559;SDS011;12727;49.934;8.656;2024-03-23T15:29:28;1.88;;;0.60;;
24559;SDS011;12727;49.934;8.656;2024-03-23T15:31:53;3.90;;;0.60;;
24559;SDS011;12727;49.934;8.656;2024-03-23T15:34:19;3.58;;;0.77;;
24559;SDS011;12727;49.934;8.656;2024-03-23T15:36:48;2.28;;;0.60;;
24559;SDS011;12727;49.934;8.656;2024-03-23T15:39:15;2.88;;;0.88;;
24559;SDS011;12727;49.934;8.656;2024-03-23T15:41:43;4.85;;;1.52;;
24559;SDS011;12727;49.934;8.656;2024-03-23T15:44:09;4.32;;;0.68;;
24559;SDS011;12727;49.934;8.656;2024-03-23T15:46:36;4.45;;;0.50;;